sensor_id;sensor_type;location;lat;lon;timestamp;pressure;altitude;pressure_sealevel;temperature
43292;BMP280;28754;47.700;7.924;2023-01-25T00:02:33;92513.50;;;1.03
43292;BMP280;28754;47.700;7.924;2023-01-25T00:05:20;92512.72;;;1.03
43292;BMP280;28754;47.700;7.924;2023-01-25T00:08:07;92514.19;;;1.12
43292;BMP280;28754;47.700;7.924;2023-01-25T00:10:53;92503.56;;;1.16
43292;BMP280;28754;47.700;7.924;2023-01-25T00:13:40;92504.34;;;1.17
43292;BMP280;28754;47.700;7.924;2023-01-25T00:16:27;92488.19;;;1.11
43292;BMP280;28754;47.700;7.924;2023-01-25T00:19:13;92500.19;;;1.09
43292;BMP280;28754;47.700;7.924;2023-01-25T00:22:00;92495.94;;;1.10
43292;BMP280;28754;47.700;7.924;2023-01-25T00:24:47;92491.66;;;1.10
43292;BMP280;28754;47.700;7.924;2023-01-25T00:27:33;92490.53;;;1.13
43292;BMP280;28754;47.700;7.924;2023-01-25T00:30:20;92487.47;;;1.17
43292;BMP280;28754;47.700;7.924;2023-01-25T00:39:25;92482.88;;;1.21
43292;BMP280;28754;47.700;7.924;2023-01-25T00:42:15;92473.47;;;1.15
43292;BMP280;28754;47.700;7.924;2023-01-25T00:45:05;92486.00;;;1.08
43292;BMP280;28754;47.700;7.924;2023-01-25T00:47:54;92467.56;;;1.08
43292;BMP280;28754;47.700;7.924;2023-01-25T00:50:41;92458.09;;;1.10
43292;BMP280;28754;47.700;7.924;2023-01-25T00:53:28;92475.75;;;1.10
43292;BMP280;28754;47.700;7.924;2023-01-25T00:56:15;92470.63;;;1.03
43292;BMP280;28754;47.700;7.924;2023-01-25T00:59:01;92462.97;;;0.97
43292;BMP280;28754;47.700;7.924;2023-01-25T01:01:49;92463.91;;;0.96
43292;BMP280;28754;47.700;7.924;2023-01-25T01:04:37;92476.72;;;0.95
43292;BMP280;28754;47.700;7.924;2023-01-25T01:07:24;92482.09;;;0.92
43292;BMP280;28754;47.700;7.924;2023-01-25T01:10:12;92471.25;;;0.91
43292;BMP280;28754;47.700;7.924;2023-01-25T01:12:58;92479.41;;;0.93
43292;BMP280;28754;47.700;7.924;2023-01-25T01:15:45;92472.44;;;0.95
43292;BMP280;28754;47.700;7.924;2023-01-25T01:18:40;92472.28;;;0.97
43292;BMP280;28754;47.700;7.924;2023-01-25T01:21:27;92466.53;;;1.02
43292;BMP280;28754;47.700;7.924;2023-01-25T01:24:13;92459.75;;;1.03
43292;BMP280;28754;47.700;7.924;2023-01-25T01:27:00;92459.75;;;1.03
43292;BMP280;28754;47.700;7.924;2023-01-25T01:29:47;92458.53;;;0.99
43292;BMP280;28754;47.700;7.924;2023-01-25T01:32:34;92455.94;;;0.93
43292;BMP280;28754;47.700;7.924;2023-01-25T01:35:20;92466.97;;;0.92
43292;BMP280;28754;47.700;7.924;2023-01-25T01:38:07;92464.28;;;0.93
43292;BMP280;28754;47.700;7.924;2023-01-25T01:40:54;92471.06;;;0.93
43292;BMP280;28754;47.700;7.924;2023-01-25T01:43:41;92449.50;;;0.90
43292;BMP280;28754;47.700;7.924;2023-01-25T01:46:37;92453.75;;;0.90
43292;BMP280;28754;47.700;7.924;2023-01-25T01:49:31;92445.69;;;0.94
43292;BMP280;28754;47.700;7.924;2023-01-25T01:52:36;92446.88;;;0.98
43292;BMP280;28754;47.700;7.924;2023-01-25T01:55:23;92447.31;;;1.02
43292;BMP280;28754;47.700;7.924;2023-01-25T01:58:12;92454.53;;;1.04
43292;BMP280;28754;47.700;7.924;2023-01-25T02:00:59;92448.47;;;0.99
43292;BMP280;28754;47.700;7.924;2023-01-25T02:03:47;92442.19;;;0.95
43292;BMP280;28754;47.700;7.924;2023-01-25T02:10:11;92458.47;;;0.93
43292;BMP280;28754;47.700;7.924;2023-01-25T02:13:00;92440.38;;;0.89
43292;BMP280;28754;47.700;7.924;2023-01-25T02:15:50;92440.66;;;0.94
43292;BMP280;28754;47.700;7.924;2023-01-25T02:18:37;92442.63;;;0.99
43292;BMP280;28754;47.700;7.924;2023-01-25T02:21:24;92455.84;;;1.01
43292;BMP280;28754;47.700;7.924;2023-01-25T02:24:30;92448.47;;;0.99
43292;BMP280;28754;47.700;7.924;2023-01-25T02:27:18;92450.97;;;0.99
43292;BMP280;28754;47.700;7.924;2023-01-25T02:30:06;92441.22;;;0.96
43292;BMP280;28754;47.700;7.924;2023-01-25T02:32:53;92447.00;;;0.90
43292;BMP280;28754;47.700;7.924;2023-01-25T02:35:45;92443.56;;;0.83
43292;BMP280;28754;47.700;7.924;2023-01-25T02:39:07;92441.59;;;0.79
43292;BMP280;28754;47.700;7.924;2023-01-25T02:41:52;92421.41;;;0.79
43292;BMP280;28754;47.700;7.924;2023-01-25T02:44:41;92430.41;;;0.81
43292;BMP280;28754;47.700;7.924;2023-01-25T02:47:28;92425.34;;;0.81
43292;BMP280;28754;47.700;7.924;2023-01-25T02:50:15;92435.44;;;0.81
43292;BMP280;28754;47.700;7.924;2023-01-25T02:53:02;92433.16;;;0.86
43292;BMP280;28754;47.700;7.924;2023-01-25T02:55:49;92433.56;;;0.90
43292;BMP280;28754;47.700;7.924;2023-01-25T02:58:35;92435.25;;;0.97
43292;BMP280;28754;47.700;7.924;2023-01-25T03:01:23;92432.34;;;1.00
43292;BMP280;28754;47.700;7.924;2023-01-25T03:04:10;92432.78;;;1.03
43292;BMP280;28754;47.700;7.924;2023-01-25T03:06:57;92444.19;;;1.00
43292;BMP280;28754;47.700;7.924;2023-01-25T03:09:43;92437.16;;;0.95
43292;BMP280;28754;47.700;7.924;2023-01-25T03:12:30;92424.47;;;0.89
43292;BMP280;28754;47.700;7.924;2023-01-25T03:15:17;92418.38;;;0.83
43292;BMP280;28754;47.700;7.924;2023-01-25T03:18:03;92419.50;;;0.81
43292;BMP280;28754;47.700;7.924;2023-01-25T03:20:50;92412.66;;;0.75
43292;BMP280;28754;47.700;7.924;2023-01-25T03:23:37;92414.13;;;0.69
43292;BMP280;28754;47.700;7.924;2023-01-25T03:26:26;92411.00;;;0.68
43292;BMP280;28754;47.700;7.924;2023-01-25T03:29:33;92406.56;;;0.69
43292;BMP280;28754;47.700;7.924;2023-01-25T03:32:19;92409.88;;;0.70
43292;BMP280;28754;47.700;7.924;2023-01-25T03:35:07;92417.00;;;0.67
43292;BMP280;28754;47.700;7.924;2023-01-25T03:37:54;92410.91;;;0.61
43292;BMP280;28754;47.700;7.924;2023-01-25T03:40:40;92407.47;;;0.62
43292;BMP280;28754;47.700;7.924;2023-01-25T03:43:28;92413.00;;;0.58
43292;BMP280;28754;47.700;7.924;2023-01-25T03:46:15;92401.88;;;0.52
43292;BMP280;28754;47.700;7.924;2023-01-25T03:49:02;92399.72;;;0.49
43292;BMP280;28754;47.700;7.924;2023-01-25T03:51:49;92410.91;;;0.47
43292;BMP280;28754;47.700;7.924;2023-01-25T03:54:38;92394.25;;;0.46
43292;BMP280;28754;47.700;7.924;2023-01-25T03:57:27;92405.25;;;0.45
43292;BMP280;28754;47.700;7.924;2023-01-25T04:00:19;92400.81;;;0.47
43292;BMP280;28754;47.700;7.924;2023-01-25T04:03:14;92398.91;;;0.49
43292;BMP280;28754;47.700;7.924;2023-01-25T04:06:03;92401.09;;;0.52
43292;BMP280;28754;47.700;7.924;2023-01-25T04:08:50;92401.53;;;0.55
43292;BMP280;28754;47.700;7.924;2023-01-25T04:11:39;92376.59;;;0.60
43292;BMP280;28754;47.700;7.924;2023-01-25T04:14:26;92382.06;;;0.64
43292;BMP280;28754;47.700;7.924;2023-01-25T04:17:20;92385.97;;;0.66
43292;BMP280;28754;47.700;7.924;2023-01-25T04:20:33;92386.78;;;0.67
43292;BMP280;28754;47.700;7.924;2023-01-25T04:23:22;92380.16;;;0.66
43292;BMP280;28754;47.700;7.924;2023-01-25T04:26:09;92387.53;;;0.67
43292;BMP280;28754;47.700;7.924;2023-01-25T04:28:58;92394.31;;;0.67
43292;BMP280;28754;47.700;7.924;2023-01-25T04:31:45;92372.59;;;0.66
43292;BMP280;28754;47.700;7.924;2023-01-25T04:34:32;92370.06;;;0.66
43292;BMP280;28754;47.700;7.924;2023-01-25T04:37:19;92375.09;;;0.66
43292;BMP280;28754;47.700;7.924;2023-01-25T04:40:12;92361.91;;;0.64
43292;BMP280;28754;47.700;7.924;2023-01-25T04:43:04;92361.03;;;0.57
43292;BMP280;28754;47.700;7.924;2023-01-25T04:45:52;92365.63;;;0.53
43292;BMP280;28754;47.700;7.924;2023-01-25T04:48:44;92357.31;;;0.53
43292;BMP280;28754;47.700;7.924;2023-01-25T04:51:31;92347.38;;;0.51
43292;BMP280;28754;47.700;7.924;2023-01-25T04:54:17;92346.97;;;0.48
43292;BMP280;28754;47.700;7.924;2023-01-25T04:57:04;92352.34;;;0.45
43292;BMP280;28754;47.700;7.924;2023-01-25T04:59:51;92339.16;;;0.43
43292;BMP280;28754;47.700;7.924;2023-01-25T05:02:39;92348.44;;;0.42
43292;BMP280;28754;47.700;7.924;2023-01-25T05:05:27;92356.63;;;0.44
43292;BMP280;28754;47.700;7.924;2023-01-25T05:08:15;92370.78;;;0.45
43292;BMP280;28754;47.700;7.924;2023-01-25T05:11:02;92355.31;;;0.48
43292;BMP280;28754;47.700;7.924;2023-01-25T05:13:57;92360.44;;;0.55
43292;BMP280;28754;47.700;7.924;2023-01-25T05:16:48;92357.53;;;0.58
43292;BMP280;28754;47.700;7.924;2023-01-25T05:19:35;92358.69;;;0.55
43292;BMP280;28754;47.700;7.924;2023-01-25T05:22:24;92343.75;;;0.54
43292;BMP280;28754;47.700;7.924;2023-01-25T05:25:13;92357.31;;;0.53
43292;BMP280;28754;47.700;7.924;2023-01-25T05:28:18;92365.22;;;0.50
43292;BMP280;28754;47.700;7.924;2023-01-25T05:31:23;92371.19;;;0.49
43292;BMP280;28754;47.700;7.924;2023-01-25T05:34:10;92356.09;;;0.49
43292;BMP280;28754;47.700;7.924;2023-01-25T05:36:57;92360.00;;;0.51
43292;BMP280;28754;47.700;7.924;2023-01-25T05:39:44;92364.84;;;0.53
43292;BMP280;28754;47.700;7.924;2023-01-25T05:42:31;92361.41;;;0.54
43292;BMP280;28754;47.700;7.924;2023-01-25T05:45:21;92350.97;;;0.57
43292;BMP280;28754;47.700;7.924;2023-01-25T05:48:08;92362.50;;;0.51
43292;BMP280;28754;47.700;7.924;2023-01-25T05:50:58;92369.03;;;0.46
43292;BMP280;28754;47.700;7.924;2023-01-25T05:53:45;92369.91;;;0.38
43292;BMP280;28754;47.700;7.924;2023-01-25T05:56:33;92359.56;;;0.33
43292;BMP280;28754;47.700;7.924;2023-01-25T05:59:20;92363.47;;;0.36
43292;BMP280;28754;47.700;7.924;2023-01-25T06:02:07;92354.38;;;0.35
43292;BMP280;28754;47.700;7.924;2023-01-25T06:04:54;92351.25;;;0.33
43292;BMP280;28754;47.700;7.924;2023-01-25T06:07:40;92348.34;;;0.36
43292;BMP280;28754;47.700;7.924;2023-01-25T06:10:27;92348.19;;;0.37
43292;BMP280;28754;47.700;7.924;2023-01-25T06:13:15;92347.22;;;0.38
43292;BMP280;28754;47.700;7.924;2023-01-25T06:16:03;92354.44;;;0.41
43292;BMP280;28754;47.700;7.924;2023-01-25T06:19:05;92353.69;;;0.41
43292;BMP280;28754;47.700;7.924;2023-01-25T06:21:58;92350.19;;;0.42
43292;BMP280;28754;47.700;7.924;2023-01-25T06:24:45;92347.31;;;0.45
43292;BMP280;28754;47.700;7.924;2023-01-25T06:27:32;92352.34;;;0.45
43292;BMP280;28754;47.700;7.924;2023-01-25T06:30:18;92358.72;;;0.41
43292;BMP280;28754;47.700;7.924;2023-01-25T06:33:05;92338.88;;;0.38
43292;BMP280;28754;47.700;7.924;2023-01-25T06:35:52;92335.44;;;0.39
43292;BMP280;28754;47.700;7.924;2023-01-25T06:38:39;92335.84;;;0.42
43292;BMP280;28754;47.700;7.924;2023-01-25T06:41:26;92338.03;;;0.45
43292;BMP280;28754;47.700;7.924;2023-01-25T06:44:13;92348.88;;;0.46
43292;BMP280;28754;47.700;7.924;2023-01-25T06:46:59;92333.78;;;0.46
43292;BMP280;28754;47.700;7.924;2023-01-25T06:49:46;92351.25;;;0.47
43292;BMP280;28754;47.700;7.924;2023-01-25T06:52:33;92330.72;;;0.50
43292;BMP280;28754;47.700;7.924;2023-01-25T06:55:22;92337.38;;;0.58
43292;BMP280;28754;47.700;7.924;2023-01-25T06:58:08;92339.97;;;0.64
43292;BMP280;28754;47.700;7.924;2023-01-25T07:01:01;92336.34;;;0.67
43292;BMP280;28754;47.700;7.924;2023-01-25T07:03:54;92334.44;;;0.68
43292;BMP280;28754;47.700;7.924;2023-01-25T07:06:41;92332.34;;;0.72
43292;BMP280;28754;47.700;7.924;2023-01-25T07:09:27;92336.84;;;0.76
43292;BMP280;28754;47.700;7.924;2023-01-25T07:12:14;92330.72;;;0.85
43292;BMP280;28754;47.700;7.924;2023-01-25T07:15:01;92333.41;;;0.98
43292;BMP280;28754;47.700;7.924;2023-01-25T07:17:47;92332.09;;;1.02
43292;BMP280;28754;47.700;7.924;2023-01-25T07:20:35;92321.22;;;1.02
43292;BMP280;28754;47.700;7.924;2023-01-25T07:23:22;92320.44;;;1.01
43292;BMP280;28754;47.700;7.924;2023-01-25T07:26:16;92322.28;;;0.93
43292;BMP280;28754;47.700;7.924;2023-01-25T07:29:03;92314.66;;;0.86
43292;BMP280;28754;47.700;7.924;2023-01-25T07:31:49;92323.69;;;0.81
43292;BMP280;28754;47.700;7.924;2023-01-25T07:34:36;92325.63;;;0.79
43292;BMP280;28754;47.700;7.924;2023-01-25T07:37:23;92320.94;;;0.76
43292;BMP280;28754;47.700;7.924;2023-01-25T07:40:13;92328.34;;;0.77
43292;BMP280;28754;47.700;7.924;2023-01-25T07:43:00;92315.53;;;0.79
43292;BMP280;28754;47.700;7.924;2023-01-25T07:45:49;92325.88;;;0.84
43292;BMP280;28754;47.700;7.924;2023-01-25T07:48:37;92327.69;;;0.90
43292;BMP280;28754;47.700;7.924;2023-01-25T07:51:24;92325.97;;;0.90
43292;BMP280;28754;47.700;7.924;2023-01-25T07:54:15;92326.56;;;0.92
43292;BMP280;28754;47.700;7.924;2023-01-25T07:57:02;92320.19;;;0.96
43292;BMP280;28754;47.700;7.924;2023-01-25T07:59:49;92332.78;;;0.96
43292;BMP280;28754;47.700;7.924;2023-01-25T08:02:35;92339.78;;;0.94
43292;BMP280;28754;47.700;7.924;2023-01-25T08:05:22;92334.72;;;0.94
43292;BMP280;28754;47.700;7.924;2023-01-25T08:08:10;92336.28;;;0.95
43292;BMP280;28754;47.700;7.924;2023-01-25T08:10:57;92319.22;;;0.97
43292;BMP280;28754;47.700;7.924;2023-01-25T08:13:44;92328.94;;;1.00
43292;BMP280;28754;47.700;7.924;2023-01-25T08:16:32;92313.41;;;0.97
43292;BMP280;28754;47.700;7.924;2023-01-25T08:19:19;92323.50;;;0.97
43292;BMP280;28754;47.700;7.924;2023-01-25T08:22:07;92331.84;;;0.97
43292;BMP280;28754;47.700;7.924;2023-01-25T08:24:54;92326.19;;;0.95
43292;BMP280;28754;47.700;7.924;2023-01-25T08:27:42;92326.81;;;0.97
43292;BMP280;28754;47.700;7.924;2023-01-25T08:30:28;92319.47;;;1.02
43292;BMP280;28754;47.700;7.924;2023-01-25T08:33:15;92319.13;;;1.05
43292;BMP280;28754;47.700;7.924;2023-01-25T08:36:02;92308.13;;;1.12
43292;BMP280;28754;47.700;7.924;2023-01-25T08:38:58;92309.94;;;1.18
43292;BMP280;28754;47.700;7.924;2023-01-25T08:41:45;92294.44;;;1.21
43292;BMP280;28754;47.700;7.924;2023-01-25T08:44:32;92285.97;;;1.29
43292;BMP280;28754;47.700;7.924;2023-01-25T08:47:18;92276.72;;;1.36
43292;BMP280;28754;47.700;7.924;2023-01-25T08:50:06;92296.78;;;1.43
43292;BMP280;28754;47.700;7.924;2023-01-25T08:52:53;92296.84;;;1.50
43292;BMP280;28754;47.700;7.924;2023-01-25T08:55:40;92300.00;;;1.58
43292;BMP280;28754;47.700;7.924;2023-01-25T08:58:28;92284.53;;;1.68
43292;BMP280;28754;47.700;7.924;2023-01-25T09:01:18;92296.22;;;1.75
43292;BMP280;28754;47.700;7.924;2023-01-25T09:04:05;92286.97;;;1.82
43292;BMP280;28754;47.700;7.924;2023-01-25T09:06:52;92286.22;;;1.88
43292;BMP280;28754;47.700;7.924;2023-01-25T09:09:38;92284.28;;;1.90
43292;BMP280;28754;47.700;7.924;2023-01-25T09:12:25;92285.88;;;1.91
43292;BMP280;28754;47.700;7.924;2023-01-25T09:15:12;92281.41;;;1.93
43292;BMP280;28754;47.700;7.924;2023-01-25T09:17:59;92280.06;;;1.97
43292;BMP280;28754;47.700;7.924;2023-01-25T09:20:45;92288.69;;;2.08
43292;BMP280;28754;47.700;7.924;2023-01-25T09:23:33;92281.72;;;2.10
43292;BMP280;28754;47.700;7.924;2023-01-25T09:26:20;92284.44;;;2.15
43292;BMP280;28754;47.700;7.924;2023-01-25T09:29:08;92280.59;;;2.19
43292;BMP280;28754;47.700;7.924;2023-01-25T09:31:56;92293.03;;;2.21
43292;BMP280;28754;47.700;7.924;2023-01-25T09:34:51;92256.50;;;2.23
43292;BMP280;28754;47.700;7.924;2023-01-25T09:37:38;92283.78;;;2.34
43292;BMP280;28754;47.700;7.924;2023-01-25T09:40:32;92291.59;;;2.45
43292;BMP280;28754;47.700;7.924;2023-01-25T09:47:04;92277.50;;;2.64
43292;BMP280;28754;47.700;7.924;2023-01-25T09:56:26;92268.66;;;3.06
43292;BMP280;28754;47.700;7.924;2023-01-25T09:59:18;92267.91;;;3.25
43292;BMP280;28754;47.700;7.924;2023-01-25T10:05:24;92270.84;;;3.35
43292;BMP280;28754;47.700;7.924;2023-01-25T10:08:26;92265.38;;;3.38
43292;BMP280;28754;47.700;7.924;2023-01-25T10:11:28;92264.25;;;3.34
43292;BMP280;28754;47.700;7.924;2023-01-25T10:14:18;92272.59;;;3.34
43292;BMP280;28754;47.700;7.924;2023-01-25T10:17:36;92269.69;;;3.37
43292;BMP280;28754;47.700;7.924;2023-01-25T10:20:43;92265.19;;;3.39
43292;BMP280;28754;47.700;7.924;2023-01-25T10:26:52;92249.06;;;3.46
43292;BMP280;28754;47.700;7.924;2023-01-25T10:29:42;92236.19;;;3.48
43292;BMP280;28754;47.700;7.924;2023-01-25T10:32:30;92246.72;;;3.51
43292;BMP280;28754;47.700;7.924;2023-01-25T10:35:21;92245.13;;;3.57
43292;BMP280;28754;47.700;7.924;2023-01-25T10:38:44;92248.66;;;3.62
43292;BMP280;28754;47.700;7.924;2023-01-25T10:41:42;92245.72;;;3.65
43292;BMP280;28754;47.700;7.924;2023-01-25T10:44:30;92241.25;;;3.67
43292;BMP280;28754;47.700;7.924;2023-01-25T10:47:34;92237.34;;;3.71
43292;BMP280;28754;47.700;7.924;2023-01-25T10:56:25;92223.72;;;3.72
43292;BMP280;28754;47.700;7.924;2023-01-25T10:59:26;92227.59;;;3.75
43292;BMP280;28754;47.700;7.924;2023-01-25T11:02:46;92233.03;;;3.78
43292;BMP280;28754;47.700;7.924;2023-01-25T11:05:38;92211.81;;;3.79
43292;BMP280;28754;47.700;7.924;2023-01-25T11:08:37;92202.66;;;3.78
43292;BMP280;28754;47.700;7.924;2023-01-25T11:11:34;92220.97;;;3.80
43292;BMP280;28754;47.700;7.924;2023-01-25T11:14:25;92203.03;;;3.81
43292;BMP280;28754;47.700;7.924;2023-01-25T11:17:28;92201.28;;;3.75
43292;BMP280;28754;47.700;7.924;2023-01-25T11:20:20;92194.84;;;3.79
43292;BMP280;28754;47.700;7.924;2023-01-25T11:23:22;92195.25;;;3.83
43292;BMP280;28754;47.700;7.924;2023-01-25T11:26:18;92184.31;;;3.89
43292;BMP280;28754;47.700;7.924;2023-01-25T11:32:13;92179.19;;;4.02
43292;BMP280;28754;47.700;7.924;2023-01-25T11:35:00;92179.19;;;4.08
43292;BMP280;28754;47.700;7.924;2023-01-25T11:38:14;92178.00;;;4.10
43292;BMP280;28754;47.700;7.924;2023-01-25T11:44:44;92177.44;;;4.09
43292;BMP280;28754;47.700;7.924;2023-01-25T11:47:56;92168.47;;;4.00
43292;BMP280;28754;47.700;7.924;2023-01-25T11:51:30;92167.91;;;3.98
43292;BMP280;28754;47.700;7.924;2023-01-25T11:54:54;92164.81;;;3.96
43292;BMP280;28754;47.700;7.924;2023-01-25T12:01:35;92143.75;;;3.89
43292;BMP280;28754;47.700;7.924;2023-01-25T12:08:19;92145.13;;;3.85
43292;BMP280;28754;47.700;7.924;2023-01-25T12:17:37;92120.66;;;3.66
43292;BMP280;28754;47.700;7.924;2023-01-25T12:27:06;92123.63;;;3.44
43292;BMP280;28754;47.700;7.924;2023-01-25T12:30:20;92113.72;;;3.42
43292;BMP280;28754;47.700;7.924;2023-01-25T12:33:24;92111.19;;;3.42
43292;BMP280;28754;47.700;7.924;2023-01-25T12:36:22;92092.28;;;3.45
43292;BMP280;28754;47.700;7.924;2023-01-25T12:39:22;92084.50;;;3.46
43292;BMP280;28754;47.700;7.924;2023-01-25T12:42:24;92089.34;;;3.41
43292;BMP280;28754;47.700;7.924;2023-01-25T12:45:16;92093.84;;;3.40
43292;BMP280;28754;47.700;7.924;2023-01-25T12:51:09;92078.09;;;3.25
43292;BMP280;28754;47.700;7.924;2023-01-25T12:53:57;92067.19;;;3.18
43292;BMP280;28754;47.700;7.924;2023-01-25T13:00:28;92071.09;;;3.07
43292;BMP280;28754;47.700;7.924;2023-01-25T13:06:51;92060.03;;;3.02
43292;BMP280;28754;47.700;7.924;2023-01-25T13:12:57;92063.34;;;3.03
43292;BMP280;28754;47.700;7.924;2023-01-25T13:15:45;92059.63;;;3.05
43292;BMP280;28754;47.700;7.924;2023-01-25T13:18:34;92053.81;;;3.05
43292;BMP280;28754;47.700;7.924;2023-01-25T13:21:43;92060.22;;;3.01
43292;BMP280;28754;47.700;7.924;2023-01-25T13:24:33;92044.28;;;3.00
43292;BMP280;28754;47.700;7.924;2023-01-25T13:27:26;92046.22;;;2.98
43292;BMP280;28754;47.700;7.924;2023-01-25T13:30:33;92036.09;;;2.92
43292;BMP280;28754;47.700;7.924;2023-01-25T13:33:34;92035.34;;;2.91
43292;BMP280;28754;47.700;7.924;2023-01-25T13:42:39;92035.34;;;2.91
43292;BMP280;28754;47.700;7.924;2023-01-25T13:45:28;92032.22;;;2.89
43292;BMP280;28754;47.700;7.924;2023-01-25T13:48:21;92036.13;;;2.85
43292;BMP280;28754;47.700;7.924;2023-01-25T13:51:11;92037.28;;;2.83
43292;BMP280;28754;47.700;7.924;2023-01-25T13:54:00;92040.19;;;2.80
43292;BMP280;28754;47.700;7.924;2023-01-25T13:56:46;92045.47;;;2.78
43292;BMP280;28754;47.700;7.924;2023-01-25T13:59:33;92047.41;;;2.76
43292;BMP280;28754;47.700;7.924;2023-01-25T14:02:23;92063.94;;;2.72
43292;BMP280;28754;47.700;7.924;2023-01-25T14:05:20;92033.78;;;2.71
43292;BMP280;28754;47.700;7.924;2023-01-25T14:08:09;92039.06;;;2.70
43292;BMP280;28754;47.700;7.924;2023-01-25T14:10:57;92051.69;;;2.70
43292;BMP280;28754;47.700;7.924;2023-01-25T14:17:14;92029.13;;;2.74
43292;BMP280;28754;47.700;7.924;2023-01-25T14:20:17;92018.22;;;2.80
43292;BMP280;28754;47.700;7.924;2023-01-25T14:23:04;92016.84;;;2.84
43292;BMP280;28754;47.700;7.924;2023-01-25T14:25:53;92013.94;;;2.87
43292;BMP280;28754;47.700;7.924;2023-01-25T14:28:44;92017.03;;;2.89
43292;BMP280;28754;47.700;7.924;2023-01-25T14:31:35;92024.25;;;2.86
43292;BMP280;28754;47.700;7.924;2023-01-25T14:34:25;92022.13;;;2.83
43292;BMP280;28754;47.700;7.924;2023-01-25T14:37:18;92012.38;;;2.80
43292;BMP280;28754;47.700;7.924;2023-01-25T14:40:10;92007.53;;;2.78
43292;BMP280;28754;47.700;7.924;2023-01-25T14:42:58;92009.06;;;2.79
43292;BMP280;28754;47.700;7.924;2023-01-25T14:45:44;92009.06;;;2.79
43292;BMP280;28754;47.700;7.924;2023-01-25T14:48:36;92006.53;;;2.86
43292;BMP280;28754;47.700;7.924;2023-01-25T14:51:28;92002.44;;;2.91
43292;BMP280;28754;47.700;7.924;2023-01-25T14:54:25;92002.22;;;2.93
43292;BMP280;28754;47.700;7.924;2023-01-25T14:57:33;92006.53;;;2.92
43292;BMP280;28754;47.700;7.924;2023-01-25T15:00:27;92002.81;;;2.95
43292;BMP280;28754;47.700;7.924;2023-01-25T15:03:17;92001.47;;;2.92
43292;BMP280;28754;47.700;7.924;2023-01-25T15:06:04;91993.09;;;2.92
43292;BMP280;28754;47.700;7.924;2023-01-25T15:08:51;91988.63;;;2.94
43292;BMP280;28754;47.700;7.924;2023-01-25T15:11:38;92001.63;;;2.97
43292;BMP280;28754;47.700;7.924;2023-01-25T15:14:31;92002.03;;;3.01
43292;BMP280;28754;47.700;7.924;2023-01-25T15:17:45;91997.38;;;3.04
43292;BMP280;28754;47.700;7.924;2023-01-25T15:20:42;91998.72;;;3.07
43292;BMP280;28754;47.700;7.924;2023-01-25T15:23:29;91984.72;;;3.04
43292;BMP280;28754;47.700;7.924;2023-01-25T15:26:27;91988.22;;;2.97
43292;BMP280;28754;47.700;7.924;2023-01-25T15:29:18;91961.19;;;2.84
43292;BMP280;28754;47.700;7.924;2023-01-25T15:32:18;91979.31;;;2.69
43292;BMP280;28754;47.700;7.924;2023-01-25T15:35:19;91977.00;;;2.61
43292;BMP280;28754;47.700;7.924;2023-01-25T15:38:10;91976.22;;;2.54
43292;BMP280;28754;47.700;7.924;2023-01-25T15:40:57;91973.13;;;2.52
43292;BMP280;28754;47.700;7.924;2023-01-25T15:43:47;91970.00;;;2.50
43292;BMP280;28754;47.700;7.924;2023-01-25T15:46:37;91964.00;;;2.44
43292;BMP280;28754;47.700;7.924;2023-01-25T15:49:27;91961.06;;;2.41
43292;BMP280;28754;47.700;7.924;2023-01-25T15:52:16;91959.53;;;2.40
43292;BMP280;28754;47.700;7.924;2023-01-25T15:55:03;91956.22;;;2.46
43292;BMP280;28754;47.700;7.924;2023-01-25T15:57:50;91938.72;;;2.51
43292;BMP280;28754;47.700;7.924;2023-01-25T16:00:36;91951.72;;;2.61
43292;BMP280;28754;47.700;7.924;2023-01-25T16:03:23;91963.56;;;2.67
43292;BMP280;28754;47.700;7.924;2023-01-25T16:06:46;91964.34;;;2.73
43292;BMP280;28754;47.700;7.924;2023-01-25T16:09:33;91964.34;;;2.73
43292;BMP280;28754;47.700;7.924;2023-01-25T16:12:19;91958.31;;;2.68
43292;BMP280;28754;47.700;7.924;2023-01-25T16:15:08;91948.03;;;2.63
43292;BMP280;28754;47.700;7.924;2023-01-25T16:17:54;91952.53;;;2.55
43292;BMP280;28754;47.700;7.924;2023-01-25T16:20:42;91954.47;;;2.46
43292;BMP280;28754;47.700;7.924;2023-01-25T16:23:29;91934.03;;;2.35
43292;BMP280;28754;47.700;7.924;2023-01-25T16:26:39;91950.97;;;2.28
43292;BMP280;28754;47.700;7.924;2023-01-25T16:29:28;91950.59;;;2.25
43292;BMP280;28754;47.700;7.924;2023-01-25T16:32:15;91950.59;;;2.18
43292;BMP280;28754;47.700;7.924;2023-01-25T16:35:02;91940.88;;;2.15
43292;BMP280;28754;47.700;7.924;2023-01-25T16:37:48;91938.16;;;2.10
43292;BMP280;28754;47.700;7.924;2023-01-25T16:40:37;91934.63;;;2.05
43292;BMP280;28754;47.700;7.924;2023-01-25T16:43:25;91939.69;;;1.99
43292;BMP280;28754;47.700;7.924;2023-01-25T16:46:19;91942.41;;;1.91
43292;BMP280;28754;47.700;7.924;2023-01-25T16:49:08;91953.47;;;1.90
43292;BMP280;28754;47.700;7.924;2023-01-25T16:51:57;91959.28;;;1.90
43292;BMP280;28754;47.700;7.924;2023-01-25T16:54:44;91931.53;;;1.90
43292;BMP280;28754;47.700;7.924;2023-01-25T16:57:30;91937.72;;;1.88
43292;BMP280;28754;47.700;7.924;2023-01-25T17:00:18;91933.09;;;1.85
43292;BMP280;28754;47.700;7.924;2023-01-25T17:03:05;91926.47;;;1.84
43292;BMP280;28754;47.700;7.924;2023-01-25T17:05:52;91921.03;;;1.80
43292;BMP280;28754;47.700;7.924;2023-01-25T17:08:39;91891.91;;;1.78
43292;BMP280;28754;47.700;7.924;2023-01-25T17:11:27;91920.25;;;1.73
43292;BMP280;28754;47.700;7.924;2023-01-25T17:14:17;91907.41;;;1.62
43292;BMP280;28754;47.700;7.924;2023-01-25T17:17:04;91899.66;;;1.57
43292;BMP280;28754;47.700;7.924;2023-01-25T17:19:51;91900.03;;;1.54
43292;BMP280;28754;47.700;7.924;2023-01-25T17:22:38;91896.94;;;1.52
43292;BMP280;28754;47.700;7.924;2023-01-25T17:25:25;91893.59;;;1.52
43292;BMP280;28754;47.700;7.924;2023-01-25T17:28:11;91904.50;;;1.52
43292;BMP280;28754;47.700;7.924;2023-01-25T17:30:58;91891.88;;;1.46
43292;BMP280;28754;47.700;7.924;2023-01-25T17:33:46;91903.69;;;1.39
43292;BMP280;28754;47.700;7.924;2023-01-25T17:36:33;91894.72;;;1.30
43292;BMP280;28754;47.700;7.924;2023-01-25T17:39:20;91909.66;;;1.25
43292;BMP280;28754;47.700;7.924;2023-01-25T17:42:07;91894.72;;;1.24
43292;BMP280;28754;47.700;7.924;2023-01-25T17:44:56;91888.72;;;1.25
43292;BMP280;28754;47.700;7.924;2023-01-25T17:47:43;91866.97;;;1.24
43292;BMP280;28754;47.700;7.924;2023-01-25T17:50:30;91877.84;;;1.18
43292;BMP280;28754;47.700;7.924;2023-01-25T17:53:16;91878.78;;;1.17
43292;BMP280;28754;47.700;7.924;2023-01-25T17:56:05;91870.06;;;1.19
43292;BMP280;28754;47.700;7.924;2023-01-25T17:58:53;91873.00;;;1.23
43292;BMP280;28754;47.700;7.924;2023-01-25T18:01:40;91866.38;;;1.22